sensor_id;sensor_type;location;lat;lon;timestamp;P1;durP1;ratioP1;P2;durP2;ratioP2
49556;SDS011;35462;45.048;7.666;2023-02-08T00:12:24;19.25;;;10.98;;
49556;SDS011;35462;45.048;7.666;2023-02-08T00:27:40;18.55;;;10.75;;
49556;SDS011;35462;45.048;7.666;2023-02-08T00:42:57;13.68;;;9.85;;
49556;SDS011;35462;45.048;7.666;2023-02-08T00:58:18;18.73;;;12.10;;
49556;SDS011;35462;45.048;7.666;2023-02-08T01:13:34;18.23;;;11.43;;
49556;SDS011;35462;45.048;7.666;2023-02-08T01:28:52;17.95;;;11.10;;
49556;SDS011;35462;45.048;7.666;2023-02-08T01:59:26;17.08;;;10.80;;
49556;SDS011;35462;45.048;7.666;2023-02-08T02:14:48;20.38;;;11.10;;
49556;SDS011;35462;45.048;7.666;2023-02-08T03:01:23;19.10;;;11.15;;
49556;SDS011;35462;45.048;7.666;2023-02-08T03:31:59;17.27;;;10.48;;
49556;SDS011;35462;45.048;7.666;2023-02-08T03:47:24;15.60;;;10.00;;
49556;SDS011;35462;45.048;7.666;2023-02-08T04:02:47;14.88;;;10.55;;
49556;SDS011;35462;45.048;7.666;2023-02-08T04:18:15;12.88;;;8.95;;
49556;SDS011;35462;45.048;7.666;2023-02-08T04:33:31;15.20;;;10.18;;
49556;SDS011;35462;45.048;7.666;2023-02-08T04:48:48;16.70;;;10.55;;
49556;SDS011;35462;45.048;7.666;2023-02-08T05:04:04;13.82;;;9.60;;
49556;SDS011;35462;45.048;7.666;2023-02-08T05:19:20;16.08;;;10.05;;
49556;SDS011;35462;45.048;7.666;2023-02-08T05:34:36;17.80;;;10.75;;
49556;SDS011;35462;45.048;7.666;2023-02-08T05:49:52;18.38;;;11.05;;
49556;SDS011;35462;45.048;7.666;2023-02-08T06:05:07;19.52;;;11.00;;
49556;SDS011;35462;45.048;7.666;2023-02-08T06:20:23;16.88;;;8.82;;
49556;SDS011;35462;45.048;7.666;2023-02-08T06:35:39;16.70;;;9.23;;
49556;SDS011;35462;45.048;7.666;2023-02-08T06:50:55;22.73;;;11.43;;
49556;SDS011;35462;45.048;7.666;2023-02-08T07:06:12;25.00;;;13.38;;
49556;SDS011;35462;45.048;7.666;2023-02-08T07:21:29;22.70;;;12.70;;
49556;SDS011;35462;45.048;7.666;2023-02-08T07:36:45;19.10;;;11.05;;
49556;SDS011;35462;45.048;7.666;2023-02-08T07:52:01;14.80;;;10.32;;
49556;SDS011;35462;45.048;7.666;2023-02-08T08:07:17;22.80;;;11.73;;
49556;SDS011;35462;45.048;7.666;2023-02-08T08:22:33;18.10;;;10.70;;
49556;SDS011;35462;45.048;7.666;2023-02-08T08:37:50;16.05;;;10.60;;
49556;SDS011;35462;45.048;7.666;2023-02-08T08:53:06;16.05;;;10.40;;
49556;SDS011;35462;45.048;7.666;2023-02-08T09:08:22;15.00;;;8.25;;
49556;SDS011;35462;45.048;7.666;2023-02-08T09:23:38;14.52;;;9.45;;
49556;SDS011;35462;45.048;7.666;2023-02-08T09:38:56;18.38;;;10.63;;
49556;SDS011;35462;45.048;7.666;2023-02-08T10:09:34;17.48;;;11.45;;
49556;SDS011;35462;45.048;7.666;2023-02-08T10:40:37;13.18;;;9.35;;
49556;SDS011;35462;45.048;7.666;2023-02-08T10:55:54;12.02;;;9.05;;
49556;SDS011;35462;45.048;7.666;2023-02-08T11:11:10;17.52;;;11.55;;
49556;SDS011;35462;45.048;7.666;2023-02-08T12:12:41;12.32;;;5.63;;
49556;SDS011;35462;45.048;7.666;2023-02-08T12:28:21;11.27;;;5.60;;
49556;SDS011;35462;45.048;7.666;2023-02-08T12:43:40;11.38;;;5.43;;
49556;SDS011;35462;45.048;7.666;2023-02-08T12:59:00;8.32;;;4.75;;
49556;SDS011;35462;45.048;7.666;2023-02-08T13:29:50;7.20;;;4.30;;
49556;SDS011;35462;45.048;7.666;2023-02-08T13:45:07;5.65;;;4.05;;
49556;SDS011;35462;45.048;7.666;2023-02-08T14:00:27;7.65;;;4.38;;
49556;SDS011;35462;45.048;7.666;2023-02-08T14:31:41;8.95;;;4.97;;
49556;SDS011;35462;45.048;7.666;2023-02-08T14:46:59;6.68;;;4.50;;
49556;SDS011;35462;45.048;7.666;2023-02-08T15:02:18;7.78;;;5.05;;
49556;SDS011;35462;45.048;7.666;2023-02-08T15:17:38;6.75;;;4.70;;
49556;SDS011;35462;45.048;7.666;2023-02-08T15:32:57;10.27;;;5.45;;
49556;SDS011;35462;45.048;7.666;2023-02-08T15:48:14;5.13;;;4.28;;
49556;SDS011;35462;45.048;7.666;2023-02-08T16:03:31;6.82;;;4.45;;
49556;SDS011;35462;45.048;7.666;2023-02-08T16:34:16;7.47;;;5.35;;
49556;SDS011;35462;45.048;7.666;2023-02-08T16:49:33;12.55;;;6.60;;
49556;SDS011;35462;45.048;7.666;2023-02-08T17:04:49;11.52;;;6.75;;
49556;SDS011;35462;45.048;7.666;2023-02-08T17:20:12;12.50;;;7.80;;
49556;SDS011;35462;45.048;7.666;2023-02-08T17:35:36;12.88;;;8.32;;
49556;SDS011;35462;45.048;7.666;2023-02-08T17:50:52;13.85;;;8.52;;
49556;SDS011;35462;45.048;7.666;2023-02-08T18:06:18;12.02;;;9.00;;
49556;SDS011;35462;45.048;7.666;2023-02-08T18:21:44;14.48;;;8.98;;
49556;SDS011;35462;45.048;7.666;2023-02-08T18:37:00;13.07;;;8.82;;
49556;SDS011;35462;45.048;7.666;2023-02-08T18:52:16;14.38;;;8.27;;
49556;SDS011;35462;45.048;7.666;2023-02-08T19:07:38;14.18;;;9.05;;
49556;SDS011;35462;45.048;7.666;2023-02-08T19:22:54;16.08;;;9.43;;
49556;SDS011;35462;45.048;7.666;2023-02-08T19:38:10;14.15;;;10.05;;
49556;SDS011;35462;45.048;7.666;2023-02-08T19:53:27;17.30;;;11.75;;
49556;SDS011;35462;45.048;7.666;2023-02-08T20:08:44;18.70;;;10.80;;
49556;SDS011;35462;45.048;7.666;2023-02-08T20:24:14;20.00;;;12.00;;
49556;SDS011;35462;45.048;7.666;2023-02-08T20:54:57;19.55;;;13.20;;
49556;SDS011;35462;45.048;7.666;2023-02-08T21:10:24;22.58;;;13.63;;
49556;SDS011;35462;45.048;7.666;2023-02-08T21:25:44;22.20;;;12.98;;
49556;SDS011;35462;45.048;7.666;2023-02-08T21:41:08;28.03;;;16.90;;
49556;SDS011;35462;45.048;7.666;2023-02-08T21:56:28;25.52;;;16.33;;
49556;SDS011;35462;45.048;7.666;2023-02-08T22:11:44;21.40;;;13.88;;
49556;SDS011;35462;45.048;7.666;2023-02-08T22:27:00;26.35;;;16.92;;
49556;SDS011;35462;45.048;7.666;2023-02-08T22:42:16;23.40;;;13.57;;
49556;SDS011;35462;45.048;7.666;2023-02-08T22:57:32;25.42;;;15.00;;
49556;SDS011;35462;45.048;7.666;2023-02-08T23:12:49;21.42;;;14.52;;
49556;SDS011;35462;45.048;7.666;2023-02-08T23:28:05;26.10;;;15.57;;
49556;SDS011;35462;45.048;7.666;2023-02-08T23:43:22;26.67;;;16.27;;
49556;SDS011;35462;45.048;7.666;2023-02-08T23:58:38;27.08;;;15.65;;
